createdAt,value
2023-01-13T00:00:25.649Z,8.53
2023-01-13T00:01:25.583Z,8.55
2023-01-13T00:02:25.657Z,8.58
2023-01-13T00:03:25.561Z,8.58
2023-01-13T00:04:25.718Z,8.58
2023-01-13T00:05:25.536Z,8.58
2023-01-13T00:06:25.525Z,8.56
2023-01-13T00:07:25.509Z,8.56
2023-01-13T00:08:25.513Z,8.56
2023-01-13T00:09:25.493Z,8.56
2023-01-13T00:10:25.531Z,8.55
2023-01-13T00:11:25.503Z,8.53
2023-01-13T00:12:25.481Z,8.52
2023-01-13T00:13:25.458Z,8.51
2023-01-13T00:14:25.440Z,8.51
2023-01-13T00:15:25.438Z,8.53
2023-01-13T00:16:25.440Z,8.55
2023-01-13T00:17:25.411Z,8.56
2023-01-13T00:18:25.422Z,8.58
2023-01-13T00:19:25.393Z,8.60
2023-01-13T00:20:25.392Z,8.61
2023-01-13T00:21:25.402Z,8.61
2023-01-13T00:22:25.357Z,8.63
2023-01-13T00:23:25.360Z,8.64
2023-01-13T00:24:25.345Z,8.63
2023-01-13T00:25:25.321Z,8.63
2023-01-13T00:26:25.366Z,8.64
2023-01-13T00:27:25.330Z,8.64
2023-01-13T00:28:25.290Z,8.66
2023-01-13T00:29:25.286Z,8.66
2023-01-13T00:30:25.279Z,8.67
2023-01-13T00:31:25.457Z,8.67
2023-01-13T00:32:25.270Z,8.67
2023-01-13T00:33:25.257Z,8.67
2023-01-13T00:34:25.236Z,8.67
2023-01-13T00:35:25.236Z,8.67
2023-01-13T00:36:25.245Z,8.67
2023-01-13T00:37:25.203Z,8.70
2023-01-13T00:38:25.193Z,8.71
2023-01-13T00:39:25.195Z,8.70
2023-01-13T00:40:25.178Z,8.74
2023-01-13T00:41:25.169Z,8.73
2023-01-13T00:42:25.381Z,8.73
2023-01-13T00:43:25.165Z,8.76
2023-01-13T00:44:25.130Z,8.74
2023-01-13T00:45:25.120Z,8.76
2023-01-13T00:46:25.191Z,8.76
2023-01-13T00:47:25.097Z,8.76
2023-01-13T00:48:25.114Z,8.74
2023-01-13T00:49:25.083Z,8.74
2023-01-13T00:50:25.090Z,8.74
2023-01-13T00:51:25.059Z,8.73
2023-01-13T00:52:25.053Z,8.70
2023-01-13T00:53:25.063Z,8.69
2023-01-13T00:54:25.044Z,8.69
2023-01-13T00:55:25.025Z,8.67
2023-01-13T00:56:39.275Z,8.69
2023-01-13T00:57:25.019Z,8.69
2023-01-13T00:58:24.987Z,8.66
2023-01-13T00:59:24.980Z,8.67
2023-01-13T01:00:24.968Z,8.66
2023-01-13T01:01:25.076Z,8.66
2023-01-13T01:02:25.019Z,8.64
2023-01-13T01:03:24.977Z,8.66
2023-01-13T01:04:24.929Z,8.67
2023-01-13T01:05:24.925Z,8.66
2023-01-13T01:06:24.903Z,8.66
2023-01-13T01:07:24.892Z,8.66
2023-01-13T01:08:24.886Z,8.67
2023-01-13T01:09:24.897Z,8.67
2023-01-13T01:10:24.865Z,8.66
2023-01-13T01:11:24.863Z,8.66
2023-01-13T01:12:24.855Z,8.67
2023-01-13T01:13:24.838Z,8.67
2023-01-13T01:14:24.854Z,8.69
2023-01-13T01:15:24.810Z,8.66
2023-01-13T01:16:24.894Z,8.69
2023-01-13T01:17:24.800Z,8.69
2023-01-13T01:18:24.807Z,8.71
2023-01-13T01:19:24.771Z,8.70
2023-01-13T01:20:24.774Z,8.71
2023-01-13T01:21:24.745Z,8.73
2023-01-13T01:22:24.762Z,8.74
2023-01-13T01:23:24.724Z,8.76
2023-01-13T01:24:24.737Z,8.78
2023-01-13T01:25:24.719Z,8.81
2023-01-13T01:26:24.728Z,8.81
2023-01-13T01:27:24.682Z,8.82
2023-01-13T01:28:24.675Z,8.81
2023-01-13T01:29:24.658Z,8.84
2023-01-13T01:30:24.680Z,8.82
2023-01-13T01:31:24.780Z,8.82
2023-01-13T01:32:24.636Z,8.84
2023-01-13T01:33:24.624Z,8.85
2023-01-13T01:34:24.611Z,8.88
2023-01-13T01:35:24.618Z,8.87
2023-01-13T01:36:24.619Z,8.87
2023-01-13T01:37:24.574Z,8.85
2023-01-13T01:38:24.586Z,8.87
2023-01-13T01:39:24.569Z,8.87
2023-01-13T01:40:24.550Z,8.87
2023-01-13T01:41:24.582Z,8.89
2023-01-13T01:42:24.538Z,8.89
2023-01-13T01:43:24.521Z,8.92
2023-01-13T01:44:24.518Z,8.94
2023-01-13T01:45:24.502Z,8.94
2023-01-13T01:46:24.552Z,8.97
2023-01-13T01:47:24.504Z,8.95
2023-01-13T01:48:24.473Z,8.97
2023-01-13T01:49:24.465Z,8.99
2023-01-13T01:50:24.461Z,8.97
2023-01-13T01:51:24.436Z,8.99
2023-01-13T01:52:24.461Z,8.99
2023-01-13T01:53:24.422Z,8.99
2023-01-13T01:54:24.425Z,9.02
2023-01-13T01:55:24.399Z,9.00
2023-01-13T01:56:24.388Z,9.03
2023-01-13T01:57:24.373Z,9.03
2023-01-13T01:58:24.387Z,9.06
2023-01-13T01:59:24.378Z,9.10
2023-01-13T02:00:24.364Z,9.11
2023-01-13T02:01:24.502Z,9.11
2023-01-13T02:02:24.412Z,9.14
2023-01-13T02:03:24.319Z,9.16
2023-01-13T02:04:24.330Z,9.18
2023-01-13T02:05:24.304Z,9.16
2023-01-13T02:06:24.276Z,9.16
2023-01-13T02:07:24.267Z,9.14
2023-01-13T02:08:24.263Z,9.16
2023-01-13T02:09:24.247Z,9.16
2023-01-13T02:10:24.270Z,9.18
2023-01-13T02:11:24.227Z,9.18
2023-01-13T02:12:24.263Z,9.19
2023-01-13T02:13:24.207Z,9.21
2023-01-13T02:14:24.190Z,9.22
2023-01-13T02:15:24.188Z,9.21
2023-01-13T02:16:24.304Z,9.21
2023-01-13T02:17:24.175Z,9.22
2023-01-13T02:18:24.152Z,9.22
2023-01-13T02:19:24.141Z,9.21
2023-01-13T02:20:24.134Z,9.23
2023-01-13T02:21:24.123Z,9.22
2023-01-13T02:22:24.151Z,9.23
2023-01-13T02:23:24.099Z,9.23
2023-01-13T02:24:24.104Z,9.25
2023-01-13T02:25:24.090Z,9.26
2023-01-13T02:26:24.067Z,9.28
2023-01-13T02:27:24.062Z,9.31
2023-01-13T02:28:24.089Z,9.31
2023-01-13T02:29:24.043Z,9.34
2023-01-13T02:30:24.031Z,9.32
2023-01-13T02:31:24.055Z,9.32
2023-01-13T02:32:24.257Z,9.32
2023-01-13T02:33:23.999Z,9.32
2023-01-13T02:34:23.992Z,9.32
2023-01-13T02:35:23.991Z,9.34
2023-01-13T02:36:23.968Z,9.34
2023-01-13T02:37:23.957Z,9.36
2023-01-13T02:38:23.969Z,9.36
2023-01-13T02:39:23.937Z,9.37
2023-01-13T02:40:23.930Z,9.37
2023-01-13T02:41:23.913Z,9.37
2023-01-13T02:42:23.922Z,9.37
2023-01-13T02:43:23.889Z,9.39
2023-01-13T02:44:23.899Z,9.37
2023-01-13T02:45:23.947Z,9.39
2023-01-13T02:46:23.864Z,9.39
2023-01-13T02:47:23.865Z,9.39
2023-01-13T02:48:23.842Z,9.40
2023-01-13T02:49:24.067Z,9.40
2023-01-13T02:50:23.824Z,9.40
2023-01-13T02:51:23.831Z,9.40
2023-01-13T02:52:23.809Z,9.39
2023-01-13T02:53:23.790Z,9.39
2023-01-13T02:54:23.783Z,9.39
2023-01-13T02:55:23.789Z,9.39
2023-01-13T02:56:23.770Z,9.34
2023-01-13T02:57:23.749Z,9.36
2023-01-13T02:58:23.761Z,9.36
2023-01-13T02:59:23.735Z,9.34
2023-01-13T03:00:23.780Z,9.34
2023-01-13T03:01:23.893Z,9.36
2023-01-13T03:02:23.819Z,9.32
2023-01-13T03:03:23.770Z,9.32
2023-01-13T03:04:23.715Z,9.31
2023-01-13T03:05:23.705Z,9.28
2023-01-13T03:06:23.705Z,9.28
2023-01-13T03:07:23.691Z,9.25
2023-01-13T03:08:23.677Z,9.23
2023-01-13T03:09:23.696Z,9.21
2023-01-13T03:10:23.647Z,9.21
2023-01-13T03:11:23.641Z,9.18
2023-01-13T03:12:23.628Z,9.19
2023-01-13T03:13:23.622Z,9.16
2023-01-13T03:14:23.606Z,9.18
2023-01-13T03:15:23.626Z,9.16
2023-01-13T03:16:23.635Z,9.14
2023-01-13T03:17:23.585Z,9.16
2023-01-13T03:18:23.573Z,9.18
2023-01-13T03:19:23.562Z,9.16
2023-01-13T03:20:23.562Z,9.16
2023-01-13T03:21:23.565Z,9.14
2023-01-13T03:22:23.520Z,9.14
2023-01-13T03:23:23.532Z,9.13
2023-01-13T03:24:23.502Z,9.13
2023-01-13T03:25:23.507Z,9.13
2023-01-13T03:26:23.525Z,9.13
2023-01-13T03:27:23.488Z,9.14
2023-01-13T03:28:23.466Z,9.14
2023-01-13T03:29:23.464Z,9.14
2023-01-13T03:30:23.562Z,9.16
2023-01-13T03:31:23.439Z,9.14
2023-01-13T03:32:23.443Z,9.16
2023-01-13T03:33:23.420Z,9.16
2023-01-13T03:34:23.405Z,9.18
2023-01-13T03:35:23.392Z,9.18
2023-01-13T03:36:23.380Z,9.19
2023-01-13T03:37:23.686Z,9.21
2023-01-13T03:38:23.358Z,9.19
2023-01-13T03:39:23.363Z,9.21
2023-01-13T03:40:23.339Z,9.21
2023-01-13T03:41:23.350Z,9.21
2023-01-13T03:42:23.339Z,9.23
2023-01-13T03:43:23.344Z,9.22
2023-01-13T03:44:23.357Z,9.23
2023-01-13T03:45:23.298Z,9.23
2023-01-13T03:46:23.392Z,9.25
2023-01-13T03:47:23.278Z,9.25
2023-01-13T03:48:23.283Z,9.25
2023-01-13T03:49:23.253Z,9.26
2023-01-13T03:50:23.244Z,9.28
2023-01-13T03:51:23.232Z,9.26
2023-01-13T03:52:23.222Z,9.28
2023-01-13T03:53:23.210Z,9.26
2023-01-13T03:54:23.210Z,9.31
2023-01-13T03:55:23.177Z,9.31
2023-01-13T03:56:23.172Z,9.32
2023-01-13T03:57:23.174Z,9.34
2023-01-13T03:58:23.147Z,9.32
2023-01-13T03:59:23.162Z,9.32
2023-01-13T04:00:23.140Z,9.34
2023-01-13T04:01:23.293Z,9.34
2023-01-13T04:02:23.145Z,9.34
2023-01-13T04:03:23.160Z,9.37
2023-01-13T04:04:23.097Z,9.34
2023-01-13T04:05:23.117Z,9.36
2023-01-13T04:06:23.092Z,9.36
2023-01-13T04:07:23.061Z,9.37
2023-01-13T04:08:23.054Z,9.37
2023-01-13T04:09:23.046Z,9.40
2023-01-13T04:10:23.022Z,9.40
2023-01-13T04:11:23.053Z,9.40
2023-01-13T04:12:23.011Z,9.39
2023-01-13T04:13:23.001Z,9.39
2023-01-13T04:14:22.985Z,9.40
2023-01-13T04:15:22.996Z,9.40
2023-01-13T04:16:22.970Z,9.43
2023-01-13T04:17:23.002Z,9.41
2023-01-13T04:18:22.962Z,9.44
2023-01-13T04:19:22.945Z,9.44
2023-01-13T04:20:22.927Z,9.43
2023-01-13T04:21:22.930Z,9.44
2023-01-13T04:22:22.908Z,9.43
2023-01-13T04:23:22.988Z,9.43
2023-01-13T04:24:22.890Z,9.43
2023-01-13T04:25:22.883Z,9.43
2023-01-13T04:26:22.864Z,9.43
2023-01-13T04:27:22.854Z,9.47
2023-01-13T04:28:22.853Z,9.44
2023-01-13T04:29:22.872Z,9.46
2023-01-13T04:30:22.831Z,9.47
2023-01-13T04:31:22.922Z,9.47
2023-01-13T04:32:22.797Z,9.46
2023-01-13T04:33:22.802Z,9.48
2023-01-13T04:34:22.786Z,9.46
2023-01-13T04:35:22.822Z,9.47
2023-01-13T04:36:22.756Z,9.46
2023-01-13T04:37:22.755Z,9.47
2023-01-13T04:38:22.749Z,9.46
2023-01-13T04:39:22.738Z,9.47
2023-01-13T04:40:22.724Z,9.46
2023-01-13T04:41:22.858Z,9.44
2023-01-13T04:42:22.702Z,9.43
2023-01-13T04:43:22.691Z,9.41
2023-01-13T04:44:22.674Z,9.41
2023-01-13T04:45:22.676Z,9.39
2023-01-13T04:46:22.717Z,9.40
2023-01-13T04:47:22.672Z,9.40
2023-01-13T04:48:22.639Z,9.39
2023-01-13T04:49:22.631Z,9.37
2023-01-13T04:50:22.639Z,9.36
2023-01-13T04:51:22.605Z,9.34
2023-01-13T04:52:22.621Z,9.37
2023-01-13T04:53:22.610Z,9.37
2023-01-13T04:54:22.565Z,9.37
2023-01-13T04:55:22.572Z,9.37
2023-01-13T04:56:22.546Z,9.37
2023-01-13T04:57:22.547Z,9.34
2023-01-13T04:58:22.931Z,9.36
2023-01-13T04:59:22.520Z,9.32
2023-01-13T05:00:22.518Z,9.31
2023-01-13T05:01:22.697Z,9.28
2023-01-13T05:02:22.555Z,9.29
2023-01-13T05:03:22.484Z,9.31
2023-01-13T05:04:22.624Z,9.29
2023-01-13T05:05:22.462Z,9.29
2023-01-13T05:06:22.485Z,9.29
2023-01-13T05:07:22.439Z,9.29
2023-01-13T05:08:22.423Z,9.28
2023-01-13T05:09:22.423Z,9.29
2023-01-13T05:10:23.979Z,9.28
2023-01-13T05:11:22.405Z,9.28
2023-01-13T05:12:22.406Z,9.25
2023-01-13T05:13:22.379Z,9.23
2023-01-13T05:14:22.361Z,9.22
2023-01-13T05:15:22.353Z,9.19
2023-01-13T05:16:22.403Z,9.18
2023-01-13T05:17:22.347Z,9.14
2023-01-13T05:18:22.343Z,9.13
2023-01-13T05:19:22.324Z,9.13
2023-01-13T05:20:22.299Z,9.11
2023-01-13T05:21:22.297Z,9.11
2023-01-13T05:22:22.283Z,9.10
2023-01-13T05:23:22.294Z,9.10
2023-01-13T05:24:22.270Z,9.08
2023-01-13T05:25:22.258Z,9.11
2023-01-13T05:26:22.255Z,9.13
2023-01-13T05:27:22.270Z,9.11
2023-01-13T05:28:22.263Z,9.16
2023-01-13T05:29:22.209Z,9.16
2023-01-13T05:30:22.201Z,9.14
2023-01-13T05:31:22.233Z,9.14
2023-01-13T05:32:22.180Z,9.14
2023-01-13T05:33:22.170Z,9.13
2023-01-13T05:34:22.203Z,9.10
2023-01-13T05:35:22.162Z,9.08
2023-01-13T05:36:22.141Z,9.08
2023-01-13T05:37:22.256Z,9.08
2023-01-13T05:38:22.112Z,9.08
2023-01-13T05:39:22.149Z,9.10
2023-01-13T05:40:22.095Z,9.08
2023-01-13T05:41:22.093Z,9.06
2023-01-13T05:42:22.071Z,9.06
2023-01-13T05:43:22.194Z,9.08
2023-01-13T05:44:22.053Z,9.06
2023-01-13T05:45:22.070Z,9.06
2023-01-13T05:46:22.051Z,9.04
2023-01-13T05:47:22.028Z,9.06
2023-01-13T05:48:22.031Z,9.06
2023-01-13T05:49:22.048Z,9.08
2023-01-13T05:50:22.001Z,9.08
2023-01-13T05:51:21.994Z,9.08
2023-01-13T05:52:21.971Z,9.06
2023-01-13T05:53:21.981Z,9.08
2023-01-13T05:54:21.997Z,9.06
2023-01-13T05:55:21.938Z,9.06
2023-01-13T05:56:21.924Z,9.06
2023-01-13T05:57:21.926Z,9.06
2023-01-13T05:58:21.901Z,9.08
2023-01-13T05:59:21.897Z,9.06
2023-01-13T06:00:21.927Z,9.06
2023-01-13T06:01:22.001Z,9.02
2023-01-13T06:02:21.862Z,9.00
2023-01-13T06:03:21.876Z,8.99
2023-01-13T06:04:21.872Z,9.00
2023-01-13T06:05:21.839Z,9.00
2023-01-13T06:06:22.219Z,9.02
2023-01-13T06:07:21.833Z,9.04
2023-01-13T06:08:21.797Z,9.04
2023-01-13T06:09:21.806Z,9.04
2023-01-13T06:10:21.779Z,9.04
2023-01-13T06:11:21.771Z,9.08
2023-01-13T06:12:21.783Z,9.06
2023-01-13T06:13:21.759Z,9.08
2023-01-13T06:14:21.737Z,9.06
2023-01-13T06:15:21.738Z,9.08
2023-01-13T06:16:21.771Z,9.08
2023-01-13T06:17:21.713Z,9.08
2023-01-13T06:18:21.722Z,9.08
2023-01-13T06:19:21.686Z,9.06
2023-01-13T06:20:21.675Z,9.02
2023-01-13T06:21:21.666Z,9.00
2023-01-13T06:22:21.658Z,9.00
2023-01-13T06:23:21.678Z,9.00
2023-01-13T06:24:21.639Z,9.00
2023-01-13T06:25:21.630Z,9.00
2023-01-13T06:26:21.640Z,9.00
2023-01-13T06:27:21.634Z,9.00
2023-01-13T06:28:21.635Z,9.02
2023-01-13T06:29:21.582Z,9.02
2023-01-13T06:30:21.588Z,9.02
2023-01-13T06:31:21.611Z,9.03
2023-01-13T06:32:21.553Z,9.02
2023-01-13T06:33:21.550Z,9.03
2023-01-13T06:34:21.551Z,8.99
2023-01-13T06:35:21.526Z,8.95
2023-01-13T06:36:21.507Z,8.94
2023-01-13T06:37:21.509Z,8.92
2023-01-13T06:38:21.497Z,8.89
2023-01-13T06:39:21.543Z,8.91
2023-01-13T06:40:21.484Z,8.89
2023-01-13T06:41:21.461Z,8.88
2023-01-13T06:42:21.449Z,8.89
2023-01-13T06:43:21.439Z,8.88
2023-01-13T06:44:21.429Z,8.85
2023-01-13T06:45:21.653Z,8.87
2023-01-13T06:46:21.459Z,8.88
2023-01-13T06:47:21.392Z,8.89
2023-01-13T06:48:21.380Z,8.89
2023-01-13T06:49:21.792Z,8.91
2023-01-13T06:50:21.356Z,8.89
2023-01-13T06:51:21.375Z,8.89
2023-01-13T06:52:21.337Z,8.91
2023-01-13T06:53:21.386Z,8.91
2023-01-13T06:54:21.316Z,8.89
2023-01-13T06:55:21.327Z,8.91
2023-01-13T06:56:21.319Z,8.87
2023-01-13T06:57:21.297Z,8.82
2023-01-13T06:58:21.288Z,8.78
2023-01-13T06:59:21.268Z,8.71
2023-01-13T07:00:21.268Z,8.58
2023-01-13T07:01:21.481Z,8.42
2023-01-13T07:02:21.453Z,8.08
2023-01-13T07:03:21.234Z,7.75
2023-01-13T07:04:21.248Z,7.58
2023-01-13T07:05:21.213Z,7.47
2023-01-13T07:06:21.202Z,7.28
2023-01-13T07:07:21.188Z,7.15
2023-01-13T07:08:21.604Z,7.07
2023-01-13T07:09:21.170Z,6.99
2023-01-13T07:10:21.167Z,6.93
2023-01-13T07:11:21.157Z,6.85
2023-01-13T07:12:21.142Z,6.84
2023-01-13T07:13:21.173Z,6.84
2023-01-13T07:14:21.152Z,6.81
2023-01-13T07:15:21.114Z,6.81
2023-01-13T07:16:21.161Z,6.79
2023-01-13T07:17:21.084Z,6.78
2023-01-13T07:18:21.078Z,6.78
2023-01-13T07:19:22.198Z,6.79
2023-01-13T07:20:21.083Z,6.78
2023-01-13T07:21:21.040Z,6.78
2023-01-13T07:22:21.031Z,6.79
2023-01-13T07:23:21.042Z,6.79
2023-01-13T07:24:21.035Z,6.79
2023-01-13T07:25:21.001Z,6.81
2023-01-13T07:26:21.027Z,6.79
2023-01-13T07:27:20.980Z,6.81
2023-01-13T07:28:20.973Z,6.85
2023-01-13T07:29:20.969Z,6.87
2023-01-13T07:30:21.156Z,6.84
2023-01-13T07:31:21.027Z,6.85
2023-01-13T07:32:20.931Z,6.85
2023-01-13T07:33:20.924Z,6.89
2023-01-13T07:34:20.918Z,6.89
2023-01-13T07:35:20.897Z,6.92
2023-01-13T07:36:20.906Z,6.92
2023-01-13T07:37:20.917Z,6.93
2023-01-13T07:38:20.870Z,6.93
2023-01-13T07:39:20.855Z,6.96
2023-01-13T07:40:20.852Z,6.96
2023-01-13T07:41:20.839Z,6.97
2023-01-13T07:42:20.831Z,6.99
2023-01-13T07:43:20.860Z,6.99
2023-01-13T07:44:20.864Z,6.99
2023-01-13T07:45:20.810Z,7.00
2023-01-13T07:46:20.787Z,7.03
2023-01-13T07:47:20.776Z,7.03
2023-01-13T07:48:20.769Z,7.06
2023-01-13T07:49:20.781Z,7.06
2023-01-13T07:50:20.745Z,7.05
2023-01-13T07:51:20.728Z,7.07
2023-01-13T07:52:20.731Z,7.07
2023-01-13T07:53:20.711Z,7.11
2023-01-13T07:54:25.483Z,7.14
2023-01-13T07:55:20.694Z,7.14
2023-01-13T07:56:20.692Z,7.14
2023-01-13T07:57:20.681Z,7.18
2023-01-13T07:58:20.665Z,7.18
2023-01-13T07:59:20.645Z,7.17
2023-01-13T08:00:20.671Z,7.15
2023-01-13T08:01:20.729Z,7.14
2023-01-13T08:02:20.801Z,7.10
2023-01-13T08:03:20.621Z,7.07
2023-01-13T08:04:20.609Z,7.05
2023-01-13T08:05:20.613Z,7.02
2023-01-13T08:06:20.583Z,7.02
2023-01-13T08:07:20.565Z,6.97
2023-01-13T08:08:20.556Z,7.00
2023-01-13T08:09:20.535Z,7.05
2023-01-13T08:10:20.574Z,7.02
2023-01-13T08:11:23.280Z,7.02
2023-01-13T08:12:20.519Z,6.99
2023-01-13T08:13:20.504Z,6.99
2023-01-13T08:14:20.505Z,6.96
2023-01-13T08:15:20.487Z,6.96
2023-01-13T08:16:20.518Z,6.95
2023-01-13T08:17:20.820Z,6.93
2023-01-13T08:18:20.461Z,6.93
2023-01-13T08:19:20.445Z,6.92
2023-01-13T08:20:20.439Z,6.93
2023-01-13T08:21:20.470Z,6.89
2023-01-13T08:22:20.456Z,6.95
2023-01-13T08:23:20.409Z,6.92
2023-01-13T08:24:20.406Z,6.93
2023-01-13T08:25:20.385Z,6.95
2023-01-13T08:26:20.388Z,6.96
2023-01-13T08:27:20.417Z,6.99
2023-01-13T08:28:20.404Z,7.00
2023-01-13T08:29:20.340Z,7.00
2023-01-13T08:30:20.343Z,7.03
2023-01-13T08:31:20.459Z,7.03
2023-01-13T08:32:20.310Z,7.05
2023-01-13T08:33:20.377Z,7.06
2023-01-13T08:34:20.307Z,7.10
2023-01-13T08:35:20.305Z,7.11
2023-01-13T08:36:20.278Z,7.11
2023-01-13T08:37:20.261Z,7.11
2023-01-13T08:38:20.261Z,7.13
2023-01-13T08:39:20.268Z,7.13
2023-01-13T08:40:20.233Z,7.13
2023-01-13T08:41:20.218Z,7.14
2023-01-13T08:42:20.221Z,7.11
2023-01-13T08:43:20.202Z,7.06
2023-01-13T08:44:20.202Z,7.07
2023-01-13T08:45:20.647Z,7.06
2023-01-13T08:46:20.223Z,7.05
2023-01-13T08:47:20.155Z,7.03
2023-01-13T08:48:20.145Z,7.05
2023-01-13T08:49:20.149Z,7.06
2023-01-13T08:50:20.128Z,7.05
2023-01-13T08:51:20.137Z,7.06
2023-01-13T08:52:20.111Z,7.05
2023-01-13T08:53:20.101Z,7.05
2023-01-13T08:54:20.115Z,7.03
2023-01-13T08:55:20.071Z,7.05
2023-01-13T08:56:20.098Z,7.06
2023-01-13T08:57:20.146Z,7.05
2023-01-13T08:58:20.063Z,7.06
2023-01-13T08:59:20.049Z,7.07
2023-01-13T09:00:20.075Z,7.07
2023-01-13T09:01:20.164Z,7.10
2023-01-13T09:02:20.225Z,7.11
2023-01-13T09:03:20.001Z,7.13
2023-01-13T09:04:20.089Z,7.14
2023-01-13T09:05:19.987Z,7.13
2023-01-13T09:06:19.972Z,7.15
2023-01-13T09:07:19.967Z,7.15
2023-01-13T09:08:19.939Z,7.15
2023-01-13T09:09:19.924Z,7.15
2023-01-13T09:10:19.928Z,7.18
2023-01-13T09:11:19.906Z,7.18
2023-01-13T09:12:19.918Z,7.20
2023-01-13T09:13:19.898Z,7.20
2023-01-13T09:14:19.882Z,7.17
2023-01-13T09:15:19.870Z,7.18
2023-01-13T09:16:19.973Z,7.17
2023-01-13T09:17:19.926Z,7.15
2023-01-13T09:18:19.840Z,7.13
2023-01-13T09:19:19.830Z,7.14
2023-01-13T09:20:19.824Z,7.13
2023-01-13T09:21:19.859Z,7.13
2023-01-13T09:22:19.797Z,7.13
2023-01-13T09:23:19.801Z,7.11
2023-01-13T09:24:19.782Z,7.11
2023-01-13T09:25:19.767Z,7.13
2023-01-13T09:26:19.763Z,7.10
2023-01-13T09:27:19.744Z,7.11
2023-01-13T09:28:19.736Z,7.13
2023-01-13T09:29:19.763Z,7.15
2023-01-13T09:30:19.722Z,7.15
2023-01-13T09:31:19.757Z,7.18
2023-01-13T09:32:19.698Z,7.21
2023-01-13T09:33:19.683Z,7.25
2023-01-13T09:34:19.686Z,7.28
2023-01-13T09:35:19.680Z,7.31
2023-01-13T09:36:19.662Z,7.33
2023-01-13T09:37:19.641Z,7.33
2023-01-13T09:38:19.642Z,7.36
2023-01-13T09:39:19.623Z,7.40
2023-01-13T09:40:19.636Z,7.43
2023-01-13T09:41:19.599Z,7.45
2023-01-13T09:42:19.615Z,7.48
2023-01-13T09:43:19.599Z,7.51
2023-01-13T09:44:19.578Z,7.51
2023-01-13T09:45:19.571Z,7.53
2023-01-13T09:46:19.649Z,7.54
2023-01-13T09:47:19.538Z,7.57
2023-01-13T09:48:19.556Z,7.57
2023-01-13T09:49:19.525Z,7.60
2023-01-13T09:50:19.513Z,7.61
2023-01-13T09:51:19.553Z,7.63
2023-01-13T09:52:19.534Z,7.66
2023-01-13T09:53:19.481Z,7.66
2023-01-13T09:54:19.470Z,7.70
2023-01-13T09:55:19.464Z,7.77
2023-01-13T09:56:19.452Z,7.82
2023-01-13T09:57:19.436Z,7.91
2023-01-13T09:58:19.661Z,7.94
2023-01-13T09:59:19.424Z,7.98
2023-01-13T10:00:19.412Z,8.03
2023-01-13T10:01:19.425Z,8.05
2023-01-13T10:02:19.392Z,8.08
2023-01-13T10:03:19.486Z,8.13
2023-01-13T10:04:19.452Z,8.18
2023-01-13T10:05:19.356Z,8.15
2023-01-13T10:06:19.355Z,8.16
2023-01-13T10:07:19.348Z,8.16
2023-01-13T10:08:19.332Z,8.16
2023-01-13T10:09:19.335Z,8.19
2023-01-13T10:10:19.314Z,8.20
2023-01-13T10:11:19.295Z,8.19
2023-01-13T10:12:19.315Z,8.19
2023-01-13T10:13:19.271Z,8.19
2023-01-13T10:14:19.305Z,8.19
2023-01-13T10:15:19.254Z,8.13
2023-01-13T10:16:19.335Z,8.09
2023-01-13T10:17:19.272Z,8.09
2023-01-13T10:18:19.362Z,8.08
2023-01-13T10:19:19.212Z,8.09
2023-01-13T10:20:19.225Z,8.13
2023-01-13T10:21:19.187Z,8.18
2023-01-13T10:22:19.226Z,8.18
2023-01-13T10:23:19.193Z,8.23
2023-01-13T10:24:19.197Z,8.24
2023-01-13T10:25:19.149Z,8.31
2023-01-13T10:26:19.247Z,8.33
2023-01-13T10:27:19.157Z,8.30
2023-01-13T10:28:19.510Z,8.30
2023-01-13T10:29:19.120Z,8.28
2023-01-13T10:30:19.214Z,8.27
2023-01-13T10:31:19.158Z,8.20
2023-01-13T10:32:19.080Z,8.18
2023-01-13T10:33:19.077Z,8.20
2023-01-13T10:34:19.105Z,8.23
2023-01-13T10:35:19.052Z,8.19
2023-01-13T10:36:19.045Z,8.23
2023-01-13T10:37:19.027Z,8.18
2023-01-13T10:38:19.068Z,8.15
2023-01-13T10:39:19.126Z,8.15
2023-01-13T10:40:19.095Z,8.15
2023-01-13T10:41:18.989Z,8.13
2023-01-13T10:42:18.986Z,8.13
2023-01-13T10:43:18.963Z,8.12
2023-01-13T10:44:18.971Z,8.12
2023-01-13T10:45:18.941Z,8.09
2023-01-13T10:46:19.013Z,8.10
2023-01-13T10:47:18.917Z,8.12
2023-01-13T10:48:18.921Z,8.13
2023-01-13T10:49:18.899Z,8.15
2023-01-13T10:50:18.896Z,8.18
2023-01-13T10:51:18.884Z,8.18
2023-01-13T10:52:19.033Z,8.19
2023-01-13T10:53:18.861Z,8.20
2023-01-13T10:54:18.855Z,8.24
2023-01-13T10:55:18.838Z,8.28
2023-01-13T10:56:18.832Z,8.33
2023-01-13T10:57:18.819Z,8.36
2023-01-13T10:58:18.922Z,8.36
2023-01-13T10:59:18.798Z,8.34
2023-01-13T11:00:18.791Z,8.33
2023-01-13T11:01:18.907Z,8.36
2023-01-13T11:02:25.748Z,8.38
2023-01-13T11:03:18.784Z,8.42
2023-01-13T11:04:18.749Z,8.44
2023-01-13T11:05:18.741Z,8.44
2023-01-13T11:06:18.730Z,8.48
2023-01-13T11:07:18.715Z,8.45
2023-01-13T11:08:18.749Z,8.45
2023-01-13T11:09:18.717Z,8.45
2023-01-13T11:10:18.709Z,8.46
2023-01-13T11:11:18.673Z,8.45
2023-01-13T11:12:18.668Z,8.42
2023-01-13T11:13:18.656Z,8.42
2023-01-13T11:14:18.641Z,8.42
2023-01-13T11:15:18.675Z,8.44
2023-01-13T11:16:18.756Z,8.44
2023-01-13T11:17:18.614Z,8.46
2023-01-13T11:18:18.605Z,8.48
2023-01-13T11:19:18.595Z,8.49
2023-01-13T11:20:18.985Z,8.46
2023-01-13T11:21:18.580Z,8.44
2023-01-13T11:22:18.563Z,8.37
2023-01-13T11:23:18.560Z,8.37
2023-01-13T11:24:18.559Z,8.34
2023-01-13T11:25:18.543Z,8.37
2023-01-13T11:26:18.537Z,8.37
2023-01-13T11:27:18.527Z,8.42
2023-01-13T11:28:18.494Z,8.41
2023-01-13T11:29:18.501Z,8.45
2023-01-13T11:30:18.485Z,8.45
2023-01-13T11:31:18.546Z,8.46
2023-01-13T11:32:18.463Z,8.52
2023-01-13T11:33:18.455Z,8.55
2023-01-13T11:34:18.439Z,8.61
2023-01-13T11:35:18.429Z,8.64
2023-01-13T11:36:20.505Z,8.67
2023-01-13T11:37:18.584Z,8.69
2023-01-13T11:38:18.394Z,8.69
2023-01-13T11:39:18.397Z,8.70
2023-01-13T11:40:18.376Z,8.74
2023-01-13T11:41:18.376Z,8.81
2023-01-13T11:42:18.383Z,8.84
2023-01-13T11:43:18.349Z,8.89
2023-01-13T11:44:18.371Z,8.91
2023-01-13T11:45:18.331Z,8.94
2023-01-13T11:46:18.351Z,8.92
2023-01-13T11:47:18.309Z,8.94
2023-01-13T11:48:18.313Z,8.92
2023-01-13T11:49:18.286Z,8.92
2023-01-13T11:50:18.273Z,8.89
2023-01-13T11:51:18.263Z,8.85
2023-01-13T11:52:18.252Z,8.81
2023-01-13T11:53:18.285Z,8.78
2023-01-13T11:54:18.228Z,8.78
2023-01-13T11:55:18.234Z,8.76
2023-01-13T11:56:18.209Z,8.73
2023-01-13T11:57:18.208Z,8.71
2023-01-13T11:58:18.193Z,8.69
2023-01-13T11:59:18.208Z,8.61
2023-01-13T12:00:18.167Z,8.60
2023-01-13T12:01:18.209Z,8.58
2023-01-13T12:02:18.218Z,8.56
2023-01-13T12:03:18.296Z,8.58
2023-01-13T12:04:18.359Z,8.61
2023-01-13T12:05:18.126Z,8.64
2023-01-13T12:06:18.108Z,8.69
2023-01-13T12:07:18.121Z,8.71
2023-01-13T12:08:18.088Z,8.74
2023-01-13T12:09:18.089Z,8.76
2023-01-13T12:10:18.161Z,8.79
2023-01-13T12:11:18.058Z,8.79
2023-01-13T12:12:18.068Z,8.79
2023-01-13T12:13:18.035Z,8.78
2023-01-13T12:14:18.027Z,8.78
2023-01-13T12:15:18.044Z,8.81
2023-01-13T12:16:18.057Z,8.85
2023-01-13T12:17:18.000Z,8.84
2023-01-13T12:18:17.987Z,8.88
2023-01-13T12:19:17.970Z,8.91
2023-01-13T12:20:17.958Z,8.95
2023-01-13T12:21:17.990Z,8.95
2023-01-13T12:22:17.949Z,8.95
2023-01-13T12:23:17.932Z,8.87
2023-01-13T12:24:17.920Z,8.85
2023-01-13T12:25:17.909Z,8.84
2023-01-13T12:26:17.904Z,8.85
2023-01-13T12:27:17.914Z,8.84
2023-01-13T12:28:17.942Z,8.81
2023-01-13T12:29:17.878Z,8.79
2023-01-13T12:30:17.860Z,8.81
2023-01-13T12:31:17.965Z,8.78
2023-01-13T12:32:17.842Z,8.76
2023-01-13T12:33:18.873Z,8.74
2023-01-13T12:34:17.818Z,8.73
2023-01-13T12:35:17.841Z,8.67
2023-01-13T12:36:17.791Z,8.66
2023-01-13T12:37:17.792Z,8.64
2023-01-13T12:38:17.821Z,8.64
2023-01-13T12:39:17.770Z,8.64
2023-01-13T12:40:17.765Z,8.60
2023-01-13T12:41:17.745Z,8.63
2023-01-13T12:42:17.748Z,8.60
2023-01-13T12:43:17.747Z,8.60
2023-01-13T12:44:17.749Z,8.58
2023-01-13T12:45:18.607Z,8.58
2023-01-13T12:46:17.721Z,8.58
2023-01-13T12:47:17.685Z,8.56
2023-01-13T12:48:17.691Z,8.55
2023-01-13T12:49:17.687Z,8.55
2023-01-13T12:50:17.647Z,8.53
2023-01-13T12:51:18.321Z,8.56
2023-01-13T12:52:17.637Z,8.58
2023-01-13T12:53:17.625Z,8.58
2023-01-13T12:54:17.627Z,8.58
2023-01-13T12:55:17.658Z,8.58
2023-01-13T12:56:17.586Z,8.56
2023-01-13T12:57:17.581Z,8.53
2023-01-13T12:58:17.575Z,8.52
2023-01-13T12:59:17.585Z,8.52
2023-01-13T13:00:17.570Z,8.53
2023-01-13T13:01:17.637Z,8.55
2023-01-13T13:02:17.692Z,8.37
2023-01-13T13:03:19.413Z,8.23
2023-01-13T13:04:17.503Z,7.83
2023-01-13T13:05:17.532Z,7.54
2023-01-13T13:06:17.628Z,7.40
2023-01-13T13:07:17.482Z,7.31
2023-01-13T13:08:17.465Z,7.23
2023-01-13T13:09:17.458Z,7.20
2023-01-13T13:10:17.458Z,7.14
2023-01-13T13:11:17.457Z,7.18
2023-01-13T13:12:17.449Z,7.25
2023-01-13T13:13:17.421Z,7.40
2023-01-13T13:14:17.410Z,7.50
2023-01-13T13:15:17.452Z,7.58
2023-01-13T13:16:17.426Z,7.69
2023-01-13T13:17:17.376Z,7.76
2023-01-13T13:18:17.380Z,7.83